X  Sluiten METAR luchtvaart weer gegevens      EHVK Volkel Air Base
Temperatuur
8°C Temperatuur
3°C Dauwpunt
71% Vochtigheid



Wind
23 KM/U
14 MPH
6 M/S
12 KTS



140°
ZO
Huidig weer

Grotendeels bewolkt Grotendeels bewolkt
Luchtdruk 997.97 (hPa) - 29.47 (inHg)
Zicht 6 (mijl) - 9.7 (km)
Vliegveld
Vliegveld code EHVK

Locatie : Volkel Air Base
Afstand: 22 (km)

Metar:
EHVK 012255Z AUTO 14012KT 110V170 9999 BKN120 08/03 Q0998 BLU

Tijd: 01-03-2024 23:55 CET